Airfield :
LOGIN :

Register | Disclaimer

   EN    FR    IT 

 










Legend :    VFR   Marginal VFR   IFR   Intensive IFR   Very Intensive IFR
Visi :
Ceiling :
>= 8 km
>= 3000ft
5 to 8 km
1000 to 3000 ft
1500m to 5 km
500 to 1000 ft
800 to 1500m
200 to 500 ft
< 800m
< 200 ft
Symbols :   Thunderstorms  Fog  Heavy snow  Heavy precipitations  Wind > 20 kt
SIGMETs :     Misc.  Thunderstorms  Icing  Turbulence  Mountain Waves  Volcanic Ashes







- Airport Elevation : 38 ft
- IATA code : TRE
- Download approach charts


EGPU - Tiree

CURRENT METAR :
  • 210950Z AUTO 18012KT 9999 FEW021/// SCT027/// BKN034/// 14/13 Q1011

EXPIRED METARs :
  • 210920Z AUTO 17015KT 9999 BKN037/// BKN048/// 15/13 Q1011
  • 210850Z AUTO 18015KT 9999 BKN042/// 15/13 Q1011
  • 210820Z AUTO 18015KT 090V150 9999 FEW010/// BKN035/// 15/13 Q1010
  • 210750Z AUTO 19014KT 9999 FEW010/// BKN048/// 15/14 Q1010
  • 210720Z AUTO 19012KT 9999 BKN048/// 16/14 Q1010

TAF TAF EGPU
Valid from the 21 at 09:00 until the 21 at 18:00 UTC


210759Z 2109/2118 19015KT 9999 FEW007 BKN045
TEMPO 2109/2112 19018G28KT
TEMPO 2109/2111 8000 -SHRA BKN007
TEMPO 2111/2117 6000 RA BKN006
BECMG 2112/2115 18020G32KT
PROB40
TEMPO 2113/2117 3000 +RA BKN004
TEMPO 2117/2118 3000 RADZ BKN004
No reported NOTAMs for that airfield.



MET'MAP, your aeronautical weather chart ! - Copyright ORBIFLY December 2007 - Disclaimer

ORBIFLY MET'MAP TEAM :

Programming & Development : Alexandra Zaïnal
Concept & Development : Baudouin d'Aumeries
Co-Development & Prog : Marc-Olivier Méhu
Technical & hardware support : Manuel Goepfert

Contact : metmap@orbifly.com




SOURCES & CREDITS :

   NOAA